Time;durP1;ratioP1;P1;durP2;ratioP2;P2;SDS_P1;SDS_P2;PMS_P1;PMS_P2;Temp;Humidity;BMP_temperature;BMP_pressure;BME280_temperature;BME280_humidity;BME280_pressure;Samples;Min_cycle;Max_cycle;Signal;HPM_P1;HPM_P2
2023/03/13 00:01:14;;;;;;;19.53;8.50;;;;;;;;;;5063221;28;20231;-51
2023/03/13 00:03:41;;;;;;;11.10;8.13;;;;;;;;;;5062618;28;20688;-51
2023/03/13 00:06:08;;;;;;;11.73;7.77;;;;;;;;;;5061309;28;20326;-51
2023/03/13 00:08:34;;;;;;;17.57;8.20;;;;;;;;;;5060415;28;20777;-52
2023/03/13 00:11:02;;;;;;;11.00;8.17;;;;;;;;;;5063227;28;20227;-52
2023/03/13 00:13:29;;;;;;;18.87;7.83;;;;;;;;;;5059780;28;20252;-51
2023/03/13 00:16:00;;;;;;;17.63;9.57;;;;;;;;;;5063293;28;20227;-51
2023/03/13 00:18:28;;;;;;;12.20;9.27;;;;;;;;;;5064883;28;20248;-51
2023/03/13 00:20:57;;;;;;;16.20;9.07;;;;;;;;;;5068229;28;20273;-61
2023/03/13 00:23:24;;;;;;;13.97;9.43;;;;;;;;;;5068162;28;20237;-51
2023/03/13 00:25:55;;;;;;;14.20;8.53;;;;;;;;;;5067469;28;20246;-53
2023/03/13 00:28:22;;;;;;;14.37;8.60;;;;;;;;;;5062250;28;20713;-51
2023/03/13 00:30:48;;;;;;;19.50;9.43;;;;;;;;;;5061237;28;20721;-52
2023/03/13 00:33:15;;;;;;;20.70;8.67;;;;;;;;;;5063756;28;20323;-53
2023/03/13 00:35:42;;;;;;;15.53;7.73;;;;;;;;;;5064769;28;20318;-51
2023/03/13 00:38:09;;;;;;;17.70;8.43;;;;;;;;;;5064457;28;20253;-52
2023/03/13 00:40:35;;;;;;;13.93;7.50;;;;;;;;;;5061345;28;20226;-52
2023/03/13 00:43:02;;;;;;;10.60;7.47;;;;;;;;;;5064826;28;20812;-52
2023/03/13 00:45:28;;;;;;;9.07;7.20;;;;;;;;;;5061220;28;20713;-52
2023/03/13 00:47:54;;;;;;;13.17;7.00;;;;;;;;;;5065943;28;20338;-51
2023/03/13 00:50:21;;;;;;;20.17;8.70;;;;;;;;;;5064735;28;20258;-51
2023/03/13 00:52:48;;;;;;;13.53;7.90;;;;;;;;;;5063745;28;20239;-51
2023/03/13 00:55:15;;;;;;;15.87;8.40;;;;;;;;;;5064963;28;20223;-52
2023/03/13 00:57:41;;;;;;;10.53;7.07;;;;;;;;;;5061676;28;20258;-52
2023/03/13 01:00:08;;;;;;;16.13;7.67;;;;;;;;;;5059809;28;20236;-51
2023/03/13 01:02:35;;;;;;;13.97;8.93;;;;;;;;;;5062959;28;20286;-52
2023/03/13 01:05:01;;;;;;;16.17;7.20;;;;;;;;;;5070913;28;20307;-52
2023/03/13 01:07:29;;;;;;;9.90;6.80;;;;;;;;;;5068381;28;20281;-52
2023/03/13 01:09:56;;;;;;;14.27;8.47;;;;;;;;;;5068831;28;20334;-52
2023/03/13 01:12:23;;;;;;;20.43;8.50;;;;;;;;;;5057623;28;20254;-53
2023/03/13 01:14:49;;;;;;;12.87;8.50;;;;;;;;;;5057752;28;20232;-52
2023/03/13 01:17:16;;;;;;;17.97;7.30;;;;;;;;;;5056548;28;20235;-51
2023/03/13 01:19:42;;;;;;;15.23;7.53;;;;;;;;;;5057245;28;20311;-53
2023/03/13 01:22:11;;;;;;;10.70;7.07;;;;;;;;;;5063847;28;20238;-51
2023/03/13 01:24:37;;;;;;;13.17;7.80;;;;;;;;;;5065464;28;20235;-51
2023/03/13 01:27:05;;;;;;;13.13;7.37;;;;;;;;;;5063518;28;20716;-52
2023/03/13 01:29:31;;;;;;;15.03;7.43;;;;;;;;;;5065860;28;20551;-51
2023/03/13 01:31:58;;;;;;;10.77;6.67;;;;;;;;;;5062893;28;20270;-51
2023/03/13 01:34:24;;;;;;;12.30;6.53;;;;;;;;;;5051269;28;20318;-52
2023/03/13 01:36:51;;;;;;;9.67;6.23;;;;;;;;;;5060938;28;20249;-52
2023/03/13 01:39:17;;;;;;;15.37;7.13;;;;;;;;;;5064688;28;20239;-51
2023/03/13 01:41:43;;;;;;;9.07;6.27;;;;;;;;;;5064271;28;20237;-51
2023/03/13 01:44:20;;;;;;;9.57;6.57;;;;;;;;;;5065415;28;20318;-52
2023/03/13 01:46:48;;;;;;;14.93;6.80;;;;;;;;;;5070740;28;20345;-53
2023/03/13 01:49:16;;;;;;;12.73;7.30;;;;;;;;;;5077777;28;20242;-52
2023/03/13 01:51:45;;;;;;;11.70;6.67;;;;;;;;;;5075216;28;20235;-52
2023/03/13 01:54:15;;;;;;;16.33;8.13;;;;;;;;;;5078436;28;20294;-52
2023/03/13 01:56:43;;;;;;;13.13;6.93;;;;;;;;;;5079600;28;20245;-51
2023/03/13 01:59:11;;;;;;;9.07;6.00;;;;;;;;;;5079815;28;20795;-52
2023/03/13 02:01:40;;;;;;;8.47;6.60;;;;;;;;;;5072681;28;20322;-52
2023/03/13 02:04:07;;;;;;;11.53;6.70;;;;;;;;;;5062232;28;20826;-52
2023/03/13 02:06:35;;;;;;;14.33;6.43;;;;;;;;;;5063336;28;20606;-52
2023/03/13 02:09:04;;;;;;;16.83;6.53;;;;;;;;;;5062914;28;20735;-52
2023/03/13 02:11:35;;;;;;;9.77;6.20;;;;;;;;;;5065977;28;20227;-51
2023/03/13 02:14:02;;;;;;;12.77;6.17;;;;;;;;;;5064172;28;20238;-53
2023/03/13 02:16:29;;;;;;;8.20;5.77;;;;;;;;;;5066909;28;20254;-51
2023/03/13 02:18:57;;;;;;;8.70;5.57;;;;;;;;;;5065567;28;20300;-51
2023/03/13 02:21:28;;;;;;;12.10;6.50;;;;;;;;;;5064465;28;20223;-52
2023/03/13 02:23:57;;;;;;;11.33;6.57;;;;;;;;;;5063431;28;20239;-51
2023/03/13 02:26:25;;;;;;;11.17;6.17;;;;;;;;;;5059814;28;20242;-52
2023/03/13 02:28:51;;;;;;;10.03;6.60;;;;;;;;;;5056148;28;20330;-51
2023/03/13 02:31:18;;;;;;;9.63;5.63;;;;;;;;;;5060721;28;20231;-51
2023/03/13 02:33:44;;;;;;;14.27;6.23;;;;;;;;;;5056598;28;20229;-52
2023/03/13 02:36:11;;;;;;;11.47;6.13;;;;;;;;;;5061631;28;20255;-52
2023/03/13 02:38:40;;;;;;;12.67;6.00;;;;;;;;;;5064031;28;20322;-52
2023/03/13 02:41:08;;;;;;;11.67;5.83;;;;;;;;;;5057648;28;20708;-51
2023/03/13 02:43:36;;;;;;;11.27;5.97;;;;;;;;;;5060474;28;20613;-51
2023/03/13 02:46:04;;;;;;;11.00;6.50;;;;;;;;;;5060553;28;20227;-51
2023/03/13 02:48:32;;;;;;;12.57;6.03;;;;;;;;;;5060052;28;20310;-51
2023/03/13 02:50:58;;;;;;;12.27;5.80;;;;;;;;;;5058165;28;20257;-51
2023/03/13 02:53:24;;;;;;;11.90;5.33;;;;;;;;;;5065742;28;20231;-52
2023/03/13 02:55:51;;;;;;;11.33;5.90;;;;;;;;;;5064303;28;20234;-53
2023/03/13 02:58:17;;;;;;;7.90;4.87;;;;;;;;;;5062095;28;20242;-52
2023/03/13 03:00:45;;;;;;;8.37;5.40;;;;;;;;;;5064919;28;20327;-52
2023/03/13 03:03:11;;;;;;;11.10;5.33;;;;;;;;;;5061699;28;20235;-52
2023/03/13 03:05:37;;;;;;;14.73;6.10;;;;;;;;;;5062208;28;20343;-51
2023/03/13 03:08:04;;;;;;;12.20;5.10;;;;;;;;;;5063408;28;20250;-51
2023/03/13 03:10:30;;;;;;;7.60;4.63;;;;;;;;;;5064508;28;20239;-52
2023/03/13 03:12:57;;;;;;;6.40;4.80;;;;;;;;;;5063872;28;20235;-52
2023/03/13 03:15:23;;;;;;;9.17;4.60;;;;;;;;;;5064053;28;20234;-52
2023/03/13 03:17:51;;;;;;;9.67;4.70;;;;;;;;;;5062184;28;20702;-52
2023/03/13 03:20:17;;;;;;;7.83;4.70;;;;;;;;;;5065387;28;21174;-51
2023/03/13 03:22:44;;;;;;;12.07;4.57;;;;;;;;;;5062576;28;20238;-51
2023/03/13 03:25:10;;;;;;;11.87;4.93;;;;;;;;;;5061647;28;22456;-51
2023/03/13 03:27:37;;;;;;;8.80;4.00;;;;;;;;;;5063712;28;20389;-52
2023/03/13 03:30:03;;;;;;;10.67;4.77;;;;;;;;;;5063280;28;20580;-51
2023/03/13 03:32:30;;;;;;;9.93;5.73;;;;;;;;;;5052252;28;20244;-51
2023/03/13 03:34:58;;;;;;;14.73;4.83;;;;;;;;;;5061734;28;20326;-51
2023/03/13 03:37:24;;;;;;;11.40;5.50;;;;;;;;;;5062047;28;20319;-52
2023/03/13 03:39:51;;;;;;;11.03;4.80;;;;;;;;;;5066635;28;20705;-52
2023/03/13 03:42:17;;;;;;;9.30;3.80;;;;;;;;;;5065470;28;20243;-51
2023/03/13 03:44:43;;;;;;;14.97;6.53;;;;;;;;;;5064502;28;20829;-50
2023/03/13 03:47:10;;;;;;;16.93;4.67;;;;;;;;;;5060234;28;20242;-51
2023/03/13 03:49:36;;;;;;;12.43;5.20;;;;;;;;;;5064276;28;20691;-51
2023/03/13 03:52:04;;;;;;;12.43;3.63;;;;;;;;;;5062358;28;20274;-51
2023/03/13 03:54:30;;;;;;;18.20;5.40;;;;;;;;;;5061065;28;20653;-52
2023/03/13 03:56:57;;;;;;;11.40;5.10;;;;;;;;;;5060774;28;20329;-50
2023/03/13 03:59:23;;;;;;;6.40;4.57;;;;;;;;;;5063317;28;20231;-52
2023/03/13 04:01:49;;;;;;;13.27;4.30;;;;;;;;;;5065550;28;20234;-52
2023/03/13 04:04:16;;;;;;;8.50;4.17;;;;;;;;;;5063498;28;20233;-52
2023/03/13 04:06:42;;;;;;;9.40;4.33;;;;;;;;;;5061841;28;20862;-53
2023/03/13 04:09:10;;;;;;;15.30;5.63;;;;;;;;;;5061850;28;20231;-51
2023/03/13 04:11:36;;;;;;;10.73;3.73;;;;;;;;;;5065079;28;20281;-51
2023/03/13 04:14:03;;;;;;;9.10;3.87;;;;;;;;;;5059730;28;20259;-51
2023/03/13 04:16:29;;;;;;;14.57;5.03;;;;;;;;;;5059813;28;20322;-52
2023/03/13 04:18:55;;;;;;;13.20;4.93;;;;;;;;;;5062167;28;20235;-52
2023/03/13 04:21:23;;;;;;;19.07;5.80;;;;;;;;;;5055153;28;20231;-53
2023/03/13 04:23:49;;;;;;;10.10;4.83;;;;;;;;;;5064223;28;20973;-52
2023/03/13 04:26:17;;;;;;;18.23;4.67;;;;;;;;;;5065238;28;20230;-52
2023/03/13 04:28:43;;;;;;;15.37;4.60;;;;;;;;;;5062675;28;20253;-51
2023/03/13 04:31:09;;;;;;;13.13;4.87;;;;;;;;;;5064250;28;20235;-52
2023/03/13 04:33:36;;;;;;;11.40;4.87;;;;;;;;;;5056318;28;20251;-52
2023/03/13 04:36:02;;;;;;;7.10;4.60;;;;;;;;;;5064631;28;20631;-52
2023/03/13 04:38:28;;;;;;;10.50;4.70;;;;;;;;;;5066997;28;20231;-51
2023/03/13 04:40:55;;;;;;;9.10;4.23;;;;;;;;;;5063297;28;20237;-52
2023/03/13 04:43:23;;;;;;;7.73;4.40;;;;;;;;;;5067225;28;20696;-51
2023/03/13 04:45:53;;;;;;;18.07;4.90;;;;;;;;;;5062937;28;20344;-51
2023/03/13 04:48:19;;;;;;;10.20;4.10;;;;;;;;;;5067480;28;20227;-55
2023/03/13 04:50:47;;;;;;;10.40;4.13;;;;;;;;;;5066029;28;20238;-52
2023/03/13 04:53:13;;;;;;;11.23;4.83;;;;;;;;;;5063486;28;20251;-51
2023/03/13 04:55:39;;;;;;;15.03;4.50;;;;;;;;;;5067241;28;20555;-52
2023/03/13 04:58:06;;;;;;;12.37;4.60;;;;;;;;;;5064076;28;20232;-51
2023/03/13 05:00:34;;;;;;;18.03;3.93;;;;;;;;;;5065134;28;20227;-51
2023/03/13 05:03:00;;;;;;;10.33;4.37;;;;;;;;;;5067697;28;20247;-52
2023/03/13 05:05:26;;;;;;;10.93;3.90;;;;;;;;;;5064065;28;20227;-52
2023/03/13 05:07:53;;;;;;;13.63;5.70;;;;;;;;;;5065843;28;20227;-51
2023/03/13 05:10:19;;;;;;;14.87;5.03;;;;;;;;;;5068594;28;20313;-52
2023/03/13 05:12:45;;;;;;;7.63;3.87;;;;;;;;;;5069963;28;20322;-52
2023/03/13 05:15:13;;;;;;;9.87;4.23;;;;;;;;;;5057190;28;20289;-52
2023/03/13 05:17:40;;;;;;;12.83;3.93;;;;;;;;;;5051441;28;20323;-52
2023/03/13 05:20:10;;;;;;;9.20;4.57;;;;;;;;;;5051636;28;20719;-52
2023/03/13 05:22:36;;;;;;;12.80;5.13;;;;;;;;;;5059960;28;20739;-52
2023/03/13 05:25:02;;;;;;;13.27;4.60;;;;;;;;;;5067583;28;20233;-53
2023/03/13 05:27:29;;;;;;;11.40;4.53;;;;;;;;;;5068407;28;20284;-53
2023/03/13 05:29:55;;;;;;;14.10;4.53;;;;;;;;;;5068261;28;20765;-52
2023/03/13 05:32:22;;;;;;;16.00;4.50;;;;;;;;;;5070190;28;20731;-51
2023/03/13 05:34:49;;;;;;;9.77;3.97;;;;;;;;;;5064841;28;20315;-51
2023/03/13 05:37:16;;;;;;;16.77;4.47;;;;;;;;;;5067745;28;20236;-51
2023/03/13 05:39:42;;;;;;;17.13;4.60;;;;;;;;;;5063906;28;20317;-52
2023/03/13 05:42:09;;;;;;;15.50;4.53;;;;;;;;;;5065983;28;20265;-51
2023/03/13 05:44:35;;;;;;;11.43;6.13;;;;;;;;;;5067193;28;20342;-51
2023/03/13 05:47:01;;;;;;;17.83;5.07;;;;;;;;;;5069064;28;20239;-52
2023/03/13 05:49:28;;;;;;;19.53;5.20;;;;;;;;;;5067391;28;20234;-51
2023/03/13 05:51:55;;;;;;;12.97;4.90;;;;;;;;;;5068012;28;20249;-52
2023/03/13 05:54:22;;;;;;;20.10;5.27;;;;;;;;;;5066584;28;20257;-53
2023/03/13 05:56:49;;;;;;;19.63;5.53;;;;;;;;;;5066194;28;20330;-51
2023/03/13 05:59:15;;;;;;;16.07;5.47;;;;;;;;;;5062441;28;20259;-51
2023/03/13 06:01:42;;;;;;;17.23;5.47;;;;;;;;;;5066456;28;20294;-52
2023/03/13 06:04:08;;;;;;;21.43;5.90;;;;;;;;;;5065858;28;20233;-53
2023/03/13 06:06:34;;;;;;;11.27;4.73;;;;;;;;;;5067614;28;20231;-53
2023/03/13 06:09:02;;;;;;;16.37;5.90;;;;;;;;;;5055573;28;20226;-52
2023/03/13 06:11:29;;;;;;;17.93;5.97;;;;;;;;;;5064739;28;20707;-51
2023/03/13 06:13:55;;;;;;;19.63;5.73;;;;;;;;;;5068840;28;20241;-52
2023/03/13 06:16:22;;;;;;;14.80;5.73;;;;;;;;;;5067327;28;20238;-51
2023/03/13 06:18:48;;;;;;;16.30;5.83;;;;;;;;;;5062353;28;20675;-52
2023/03/13 06:21:14;;;;;;;16.27;5.53;;;;;;;;;;5054462;28;20229;-52
2023/03/13 06:23:41;;;;;;;11.17;4.93;;;;;;;;;;5066250;28;20241;-52
2023/03/13 06:26:09;;;;;;;14.57;5.03;;;;;;;;;;5051121;28;20232;-53
2023/03/13 06:28:36;;;;;;;13.27;5.47;;;;;;;;;;5069054;28;20312;-53
2023/03/13 06:31:02;;;;;;;19.27;5.10;;;;;;;;;;5067114;28;20259;-51
2023/03/13 06:33:29;;;;;;;19.73;6.00;;;;;;;;;;5067050;28;20239;-51
2023/03/13 06:35:56;;;;;;;18.13;5.23;;;;;;;;;;5060189;28;20239;-54
2023/03/13 06:38:22;;;;;;;13.73;5.37;;;;;;;;;;5065435;28;20322;-52
2023/03/13 06:40:49;;;;;;;16.67;5.77;;;;;;;;;;5066747;28;20245;-52
2023/03/13 06:43:17;;;;;;;16.43;6.47;;;;;;;;;;5066734;28;20259;-51
2023/03/13 06:45:43;;;;;;;13.73;5.07;;;;;;;;;;5068053;28;20252;-50
2023/03/13 06:48:09;;;;;;;22.13;6.00;;;;;;;;;;5067985;28;20568;-52
2023/03/13 06:50:38;;;;;;;20.47;7.37;;;;;;;;;;5068118;28;20311;-53
2023/03/13 06:53:04;;;;;;;17.60;6.97;;;;;;;;;;5066003;28;20239;-52
2023/03/13 06:55:31;;;;;;;20.53;6.60;;;;;;;;;;5064146;28;20239;-50
2023/03/13 06:57:57;;;;;;;15.43;5.23;;;;;;;;;;5056264;28;20250;-53
2023/03/13 07:00:25;;;;;;;15.57;5.87;;;;;;;;;;5062159;28;20607;-54
2023/03/13 07:02:52;;;;;;;17.03;6.27;;;;;;;;;;5066904;28;20315;-51
2023/03/13 07:05:19;;;;;;;21.50;6.57;;;;;;;;;;5067435;28;20261;-52
2023/03/13 07:07:45;;;;;;;19.80;5.73;;;;;;;;;;5065851;28;20317;-52
2023/03/13 07:10:12;;;;;;;24.07;6.60;;;;;;;;;;5066815;28;20748;-53
2023/03/13 07:12:38;;;;;;;25.73;6.90;;;;;;;;;;5067250;28;20721;-51
2023/03/13 07:15:05;;;;;;;22.33;6.30;;;;;;;;;;5066482;28;21088;-51
2023/03/13 07:17:33;;;;;;;15.33;5.37;;;;;;;;;;5065712;28;20709;-51
2023/03/13 07:19:59;;;;;;;11.87;5.10;;;;;;;;;;5062974;28;20317;-53
2023/03/13 07:22:26;;;;;;;13.43;5.53;;;;;;;;;;5066278;28;20231;-53
2023/03/13 07:24:52;;;;;;;17.83;6.80;;;;;;;;;;5073377;28;20269;-50
2023/03/13 07:27:19;;;;;;;15.07;6.47;;;;;;;;;;5067652;28;20230;-52
2023/03/13 07:29:46;;;;;;;14.70;5.10;;;;;;;;;;5063245;28;20231;-52
2023/03/13 07:32:12;;;;;;;12.93;5.80;;;;;;;;;;5066383;28;20238;-55
2023/03/13 07:34:43;;;;;;;22.77;6.13;;;;;;;;;;5066710;28;20745;-54
2023/03/13 07:37:09;;;;;;;19.00;6.33;;;;;;;;;;5060330;28;20238;-56
2023/03/13 07:39:36;;;;;;;18.20;5.43;;;;;;;;;;5063442;28;20235;-55
2023/03/13 07:42:02;;;;;;;20.90;5.83;;;;;;;;;;5063535;28;20721;-55
2023/03/13 07:44:28;;;;;;;23.17;7.87;;;;;;;;;;5065661;28;20657;-55
2023/03/13 07:46:55;;;;;;;16.07;6.23;;;;;;;;;;5064227;28;20245;-55
2023/03/13 07:49:21;;;;;;;24.30;6.13;;;;;;;;;;5062559;28;20231;-56
2023/03/13 07:51:49;;;;;;;18.57;6.07;;;;;;;;;;5064835;28;20338;-55
2023/03/13 07:54:16;;;;;;;23.97;5.93;;;;;;;;;;5062784;28;20243;-56
2023/03/13 07:56:42;;;;;;;20.77;6.43;;;;;;;;;;5057941;28;20227;-55
2023/03/13 07:59:09;;;;;;;10.80;5.60;;;;;;;;;;5064234;28;20239;-55
2023/03/13 08:01:35;;;;;;;30.33;6.13;;;;;;;;;;5064414;28;20243;-54
2023/03/13 08:04:02;;;;;;;22.70;5.40;;;;;;;;;;5063424;28;20269;-54
2023/03/13 08:06:30;;;;;;;20.87;6.03;;;;;;;;;;5057675;28;20234;-54
2023/03/13 08:08:58;;;;;;;16.73;5.60;;;;;;;;;;5060440;28;20228;-55
2023/03/13 08:11:26;;;;;;;16.60;5.90;;;;;;;;;;5061793;28;20748;-57
2023/03/13 08:13:52;;;;;;;17.53;5.37;;;;;;;;;;5064174;28;20233;-54
2023/03/13 08:16:19;;;;;;;18.57;5.60;;;;;;;;;;5064172;28;20237;-54
2023/03/13 08:18:47;;;;;;;22.30;6.20;;;;;;;;;;5062192;28;20508;-54
2023/03/13 08:21:14;;;;;;;19.17;5.57;;;;;;;;;;5061897;28;20219;-54
2023/03/13 08:23:41;;;;;;;23.33;7.20;;;;;;;;;;5061758;28;20231;-54
2023/03/13 08:26:10;;;;;;;13.23;5.53;;;;;;;;;;5062873;28;20240;-54
2023/03/13 08:28:36;;;;;;;10.43;5.83;;;;;;;;;;5057948;28;20276;-54
2023/03/13 08:31:09;;;;;;;18.57;5.67;;;;;;;;;;5062185;28;20241;-52
2023/03/13 08:33:36;;;;;;;15.53;5.77;;;;;;;;;;5062190;28;20734;-53
2023/03/13 08:36:08;;;;;;;17.23;5.53;;;;;;;;;;5061245;28;20239;-53
2023/03/13 08:38:34;;;;;;;19.87;6.30;;;;;;;;;;5061924;28;20231;-53
2023/03/13 08:41:01;;;;;;;11.87;5.80;;;;;;;;;;5063558;28;20235;-54
2023/03/13 08:43:29;;;;;;;15.63;5.60;;;;;;;;;;5060686;28;20288;-53
2023/03/13 08:45:55;;;;;;;17.00;5.97;;;;;;;;;;5066426;28;20223;-53
2023/03/13 08:48:22;;;;;;;10.60;5.20;;;;;;;;;;5064441;28;20249;-54
2023/03/13 08:50:58;;;;;;;15.80;5.77;;;;;;;;;;5064257;28;20324;-53
2023/03/13 08:53:25;;;;;;;13.60;5.40;;;;;;;;;;5058756;28;20720;-55
2023/03/13 08:55:52;;;;;;;14.33;5.60;;;;;;;;;;5064239;28;20242;-54
2023/03/13 08:58:19;;;;;;;12.23;4.67;;;;;;;;;;5064522;28;20235;-54
2023/03/13 09:00:46;;;;;;;10.10;5.83;;;;;;;;;;5064985;28;20790;-55
2023/03/13 09:03:13;;;;;;;13.10;6.20;;;;;;;;;;5065932;28;20251;-56
2023/03/13 09:05:39;;;;;;;12.53;7.10;;;;;;;;;;5068093;28;20363;-55
2023/03/13 09:08:06;;;;;;;16.17;5.37;;;;;;;;;;5068363;28;20227;-56
2023/03/13 09:10:33;;;;;;;9.97;5.70;;;;;;;;;;5070102;28;20231;-56
2023/03/13 09:12:59;;;;;;;11.60;5.23;;;;;;;;;;5071746;28;20240;-56
2023/03/13 09:15:26;;;;;;;13.87;6.13;;;;;;;;;;5070512;28;20235;-57
2023/03/13 09:17:54;;;;;;;14.23;5.10;;;;;;;;;;5067456;28;20242;-55
2023/03/13 09:20:21;;;;;;;14.43;5.93;;;;;;;;;;5055431;28;20224;-56
2023/03/13 09:22:47;;;;;;;10.93;4.70;;;;;;;;;;5064512;28;20251;-55
2023/03/13 09:25:14;;;;;;;7.07;3.73;;;;;;;;;;5067800;28;20238;-54
2023/03/13 09:27:41;;;;;;;20.07;5.67;;;;;;;;;;5068075;28;20767;-56
2023/03/13 09:30:08;;;;;;;17.90;5.37;;;;;;;;;;5068872;28;20236;-55
2023/03/13 09:32:34;;;;;;;14.20;4.73;;;;;;;;;;5068404;28;20235;-56
2023/03/13 09:35:02;;;;;;;14.17;5.07;;;;;;;;;;5071268;28;20613;-56
2023/03/13 09:37:29;;;;;;;9.27;6.20;;;;;;;;;;5067807;28;20247;-56
2023/03/13 09:39:56;;;;;;;14.07;4.67;;;;;;;;;;5070301;28;20246;-55
2023/03/13 09:42:28;;;;;;;14.47;5.27;;;;;;;;;;5072444;28;20701;-60
2023/03/13 09:44:56;;;;;;;15.50;4.30;;;;;;;;;;5066374;28;20223;-60
2023/03/13 09:47:24;;;;;;;14.13;4.40;;;;;;;;;;5069325;28;20682;-55
2023/03/13 09:49:53;;;;;;;7.93;4.27;;;;;;;;;;5063162;28;20609;-57
2023/03/13 09:52:22;;;;;;;15.07;5.07;;;;;;;;;;5067020;28;20646;-56
2023/03/13 09:54:50;;;;;;;8.70;4.03;;;;;;;;;;5066160;27;20235;-56
2023/03/13 09:57:23;;;;;;;8.27;4.20;;;;;;;;;;5062374;28;20667;-56
2023/03/13 09:59:53;;;;;;;8.80;3.70;;;;;;;;;;5058180;28;20693;-57
2023/03/13 10:02:30;;;;;;;12.93;5.00;;;;;;;;;;5065073;28;20231;-56
2023/03/13 10:05:00;;;;;;;13.70;4.53;;;;;;;;;;5057018;28;20306;-57
2023/03/13 10:07:28;;;;;;;9.93;3.30;;;;;;;;;;5064134;28;20227;-56
2023/03/13 10:09:55;;;;;;;12.97;4.30;;;;;;;;;;5063584;28;20297;-58
2023/03/13 10:12:24;;;;;;;7.10;3.43;;;;;;;;;;5062448;28;20661;-57
2023/03/13 10:14:53;;;;;;;9.00;4.50;;;;;;;;;;5055992;28;20759;-56
2023/03/13 10:17:28;;;;;;;12.43;4.00;;;;;;;;;;5054054;28;20319;-55
2023/03/13 10:19:56;;;;;;;6.33;3.70;;;;;;;;;;5062878;28;20694;-56
2023/03/13 10:22:25;;;;;;;8.57;3.43;;;;;;;;;;5060614;28;20238;-57
2023/03/13 10:24:55;;;;;;;10.80;5.03;;;;;;;;;;5066061;28;20273;-55
2023/03/13 10:27:21;;;;;;;8.63;3.63;;;;;;;;;;5062014;28;20906;-57
2023/03/13 10:29:48;;;;;;;9.17;3.53;;;;;;;;;;5064540;28;20246;-57
2023/03/13 10:32:15;;;;;;;9.57;3.83;;;;;;;;;;5061538;28;20231;-57
2023/03/13 10:34:48;;;;;;;9.90;3.50;;;;;;;;;;5059103;28;20323;-58
2023/03/13 10:37:15;;;;;;;8.93;3.73;;;;;;;;;;5062566;28;20861;-56
2023/03/13 10:39:42;;;;;;;7.13;3.80;;;;;;;;;;5060616;28;20231;-53
2023/03/13 10:42:11;;;;;;;8.20;4.20;;;;;;;;;;5061907;28;20277;-56
2023/03/13 10:44:38;;;;;;;9.17;4.47;;;;;;;;;;5062596;28;20235;-54
2023/03/13 10:47:06;;;;;;;6.53;3.30;;;;;;;;;;5060554;28;20227;-53
2023/03/13 10:49:33;;;;;;;6.33;4.47;;;;;;;;;;5063154;28;20750;-54
2023/03/13 10:52:01;;;;;;;7.63;3.17;;;;;;;;;;5062559;28;20239;-52
2023/03/13 10:54:28;;;;;;;5.33;3.57;;;;;;;;;;5059299;28;20762;-52
2023/03/13 10:57:09;;;;;;;7.07;3.70;;;;;;;;;;5062115;28;20245;-52
2023/03/13 10:59:39;;;;;;;9.67;3.27;;;;;;;;;;5059890;28;20234;-52
2023/03/13 11:02:18;;;;;;;5.23;3.43;;;;;;;;;;5062489;28;20524;-51
2023/03/13 11:04:52;;;;;;;3.93;2.73;;;;;;;;;;5063319;28;20252;-53
2023/03/13 11:07:21;;;;;;;7.70;4.00;;;;;;;;;;5061453;27;20234;-52
2023/03/13 11:09:57;;;;;;;7.00;2.97;;;;;;;;;;5061596;28;20238;-51
2023/03/13 11:12:23;;;;;;;3.47;2.50;;;;;;;;;;5062447;28;20317;-52
2023/03/13 11:14:56;;;;;;;4.53;2.23;;;;;;;;;;5066101;28;20298;-52
2023/03/13 11:17:24;;;;;;;3.47;2.47;;;;;;;;;;5069933;28;20254;-52
2023/03/13 11:20:05;;;;;;;4.37;2.50;;;;;;;;;;5072391;28;20299;-53
2023/03/13 11:22:41;;;;;;;8.83;2.20;;;;;;;;;;5072936;28;20261;-54
2023/03/13 11:25:19;;;;;;;4.33;1.83;;;;;;;;;;5074545;28;20294;-51
2023/03/13 11:27:48;;;;;;;3.47;1.87;;;;;;;;;;5061542;28;20235;-51
2023/03/13 11:30:21;;;;;;;5.60;1.60;;;;;;;;;;5062039;28;20769;-53
2023/03/13 11:32:51;;;;;;;6.53;1.93;;;;;;;;;;5060599;28;20628;-52
2023/03/13 11:35:21;;;;;;;2.73;1.73;;;;;;;;;;5062251;28;20226;-51
2023/03/13 11:37:48;;;;;;;2.00;1.50;;;;;;;;;;5063605;28;20732;-53
2023/03/13 11:40:19;;;;;;;2.80;1.90;;;;;;;;;;5060327;28;20664;-52
2023/03/13 11:42:55;;;;;;;2.07;1.73;;;;;;;;;;5060635;28;20242;-51
2023/03/13 11:45:36;;;;;;;3.33;1.60;;;;;;;;;;5061088;28;20288;-51
2023/03/13 11:48:05;;;;;;;5.60;1.93;;;;;;;;;;5057405;28;20608;-51
2023/03/13 11:50:37;;;;;;;5.87;2.33;;;;;;;;;;5065707;28;20293;-54
2023/03/13 11:53:16;;;;;;;2.03;1.20;;;;;;;;;;5068703;28;20243;-53
2023/03/13 11:55:59;;;;;;;1.90;1.80;;;;;;;;;;5065073;28;20755;-51
2023/03/13 11:58:41;;;;;;;2.60;1.27;;;;;;;;;;5067663;28;20233;-51
2023/03/13 12:01:11;;;;;;;2.70;1.60;;;;;;;;;;5070768;28;20266;-51
2023/03/13 12:03:40;;;;;;;1.30;1.20;;;;;;;;;;5059633;28;20830;-52
2023/03/13 12:06:12;;;;;;;1.00;0.90;;;;;;;;;;5062178;28;20231;-52
2023/03/13 12:08:40;;;;;;;1.70;1.20;;;;;;;;;;5060728;28;20233;-52
2023/03/13 12:11:13;;;;;;;2.03;1.50;;;;;;;;;;5061050;28;20232;-50
2023/03/13 12:13:42;;;;;;;3.50;1.07;;;;;;;;;;5057506;28;20239;-52
2023/03/13 12:16:12;;;;;;;1.17;1.08;;;;;;;;;;5057451;28;20223;-51
2023/03/13 12:18:40;;;;;;;2.67;1.17;;;;;;;;;;5062750;28;20230;-51
2023/03/13 12:21:12;;;;;;;1.27;1.05;;;;;;;;;;5059555;28;20784;-52
2023/03/13 12:23:42;;;;;;;2.45;1.45;;;;;;;;;;5062350;28;20227;-52
2023/03/13 12:26:12;;;;;;;1.80;0.95;;;;;;;;;;5061078;28;20301;-52
2023/03/13 12:28:40;;;;;;;1.55;1.00;;;;;;;;;;5060166;28;20227;-51
2023/03/13 12:31:17;;;;;;;4.10;2.05;;;;;;;;;;5062047;28;20262;-53
2023/03/13 12:33:46;;;;;;;2.15;0.98;;;;;;;;;;5058004;28;20235;-50
2023/03/13 12:36:16;;;;;;;1.17;0.85;;;;;;;;;;5060764;28;20678;-51
2023/03/13 12:38:48;;;;;;;0.88;0.75;;;;;;;;;;5059576;28;20282;-52
2023/03/13 12:41:19;;;;;;;6.43;1.10;;;;;;;;;;5057610;28;20887;-51
2023/03/13 12:43:47;;;;;;;0.85;0.70;;;;;;;;;;5060043;28;20314;-52
2023/03/13 12:46:27;;;;;;;1.90;0.93;;;;;;;;;;5061116;28;20231;-51
2023/03/13 12:49:01;;;;;;;1.77;0.90;;;;;;;;;;5058823;28;20254;-51
2023/03/13 12:51:34;;;;;;;1.95;1.00;;;;;;;;;;5058597;28;20270;-53
2023/03/13 12:54:14;;;;;;;1.92;0.88;;;;;;;;;;5051871;28;20256;-52
2023/03/13 12:56:49;;;;;;;2.47;1.00;;;;;;;;;;5063531;28;20692;-51
2023/03/13 12:59:18;;;;;;;1.10;1.00;;;;;;;;;;5064066;28;20318;-51
2023/03/13 13:01:48;;;;;;;1.10;1.00;;;;;;;;;;5063869;28;20259;-52
2023/03/13 13:04:15;;;;;;;4.03;0.82;;;;;;;;;;5063203;28;20243;-53
2023/03/13 13:06:53;;;;;;;0.75;0.75;;;;;;;;;;5058748;28;20227;-52
2023/03/13 13:09:22;;;;;;;0.95;0.90;;;;;;;;;;5059597;28;20705;-52
2023/03/13 13:11:51;;;;;;;3.47;1.25;;;;;;;;;;5062816;28;20861;-51
2023/03/13 13:14:36;;;;;;;1.23;0.90;;;;;;;;;;5065767;28;20238;-52
2023/03/13 13:17:15;;;;;;;2.28;0.75;;;;;;;;;;5063414;27;20228;-53
2023/03/13 13:19:45;;;;;;;0.85;0.85;;;;;;;;;;5054628;28;20834;-53
2023/03/13 13:22:32;;;;;;;1.33;0.82;;;;;;;;;;5060631;28;20862;-53
2023/03/13 13:24:59;;;;;;;2.67;0.70;;;;;;;;;;5063375;28;20235;-51
2023/03/13 13:27:45;;;;;;;3.10;1.10;;;;;;;;;;5058166;28;20738;-52
2023/03/13 13:30:27;;;;;;;1.60;1.00;;;;;;;;;;5064342;28;20227;-52
2023/03/13 13:32:55;;;;;;;0.75;0.75;;;;;;;;;;5064297;28;20239;-51
2023/03/13 13:35:25;;;;;;;1.00;0.90;;;;;;;;;;5063859;28;20247;-51
2023/03/13 13:37:52;;;;;;;0.90;0.90;;;;;;;;;;5063919;28;20237;-52
2023/03/13 13:40:20;;;;;;;0.95;0.88;;;;;;;;;;5062920;28;20659;-52
2023/03/13 13:42:48;;;;;;;1.10;1.00;;;;;;;;;;5060491;28;20243;-51
2023/03/13 13:45:28;;;;;;;1.85;0.82;;;;;;;;;;5062321;28;20326;-52
2023/03/13 13:48:13;;;;;;;2.90;1.05;;;;;;;;;;5050739;28;20326;-51
2023/03/13 13:51:00;;;;;;;5.88;1.25;;;;;;;;;;5062256;28;20645;-52
2023/03/13 13:53:30;;;;;;;0.95;0.88;;;;;;;;;;5063291;28;20232;-52
2023/03/13 13:55:58;;;;;;;1.55;0.85;;;;;;;;;;5059889;28;20219;-54
2023/03/13 13:58:25;;;;;;;0.70;0.70;;;;;;;;;;5061292;28;20350;-52
2023/03/13 14:00:53;;;;;;;0.60;0.60;;;;;;;;;;5061600;28;20395;-51
2023/03/13 14:03:21;;;;;;;1.00;0.80;;;;;;;;;;5063550;28;20231;-52
2023/03/13 14:05:51;;;;;;;3.08;1.40;;;;;;;;;;5061885;28;20251;-52
2023/03/13 14:08:19;;;;;;;2.75;1.25;;;;;;;;;;5061778;28;25362;-54
2023/03/13 14:10:47;;;;;;;1.15;0.93;;;;;;;;;;5061181;28;20231;-53
2023/03/13 14:13:14;;;;;;;6.63;1.15;;;;;;;;;;5060206;28;20235;-52
2023/03/13 14:15:42;;;;;;;1.25;1.05;;;;;;;;;;5056054;28;20717;-53
2023/03/13 14:18:11;;;;;;;1.10;0.90;;;;;;;;;;5066299;28;20326;-53
2023/03/13 14:20:37;;;;;;;1.30;1.00;;;;;;;;;;5056164;28;20250;-52
2023/03/13 14:23:09;;;;;;;1.80;1.20;;;;;;;;;;5060732;28;20238;-53
2023/03/13 14:25:43;;;;;;;1.92;1.08;;;;;;;;;;5062587;28;20604;-52
2023/03/13 14:28:17;;;;;;;4.63;1.92;;;;;;;;;;5060137;28;20263;-52
2023/03/13 14:30:44;;;;;;;1.75;1.23;;;;;;;;;;5064419;28;20735;-53
2023/03/13 14:33:10;;;;;;;3.88;1.77;;;;;;;;;;5057873;28;20234;-53
2023/03/13 14:35:37;;;;;;;1.33;0.95;;;;;;;;;;5062018;28;21652;-52
2023/03/13 14:38:03;;;;;;;1.00;0.90;;;;;;;;;;5057826;28;20238;-52
2023/03/13 14:40:32;;;;;;;1.80;1.40;;;;;;;;;;5061584;28;20237;-54
2023/03/13 14:43:00;;;;;;;2.08;1.45;;;;;;;;;;5060599;28;20771;-52